Time;durP1;ratioP1;P1;durP2;ratioP2;P2;SDS_P1;SDS_P2;PMS_P1;PMS_P2;Temp;Humidity;BMP_temperature;BMP_pressure;BME280_temperature;BME280_humidity;BME280_pressure;Samples;Min_cycle;Max_cycle;Signal;HPM_P1;HPM_P2
2022/04/06 00:00:52;;;;;;;91.63;43.05;;;0.80;99.90;;;;;;19858247;29;20046;-48
2022/04/06 00:10:55;;;;;;;88.47;39.92;;;0.70;99.90;;;;;;19863445;29;20517;-52
2022/04/06 00:20:57;;;;;;;99.22;46.17;;;0.70;99.90;;;;;;19856234;29;20035;-50
2022/04/06 00:31:00;;;;;;;87.63;40.75;;;0.80;99.90;;;;;;19851832;29;20108;-51
2022/04/06 00:41:02;;;;;;;96.20;44.90;;;0.80;99.90;;;;;;19811589;29;20402;-52
2022/04/06 00:51:05;;;;;;;103.65;47.40;;;0.70;99.90;;;;;;19859815;29;20043;-48
2022/04/06 01:01:08;;;;;;;100.93;42.67;;;0.60;99.90;;;;;;19868941;29;20385;-49
2022/04/06 01:11:10;;;;;;;98.15;44.95;;;0.60;99.90;;;;;;19865269;29;20043;-47
2022/04/06 01:21:13;;;;;;;107.35;45.22;;;0.50;99.90;;;;;;19856512;29;20092;-56
2022/04/06 01:31:15;;;;;;;98.13;44.88;;;0.50;99.90;;;;;;19860133;29;20034;-50
2022/04/06 01:41:18;;;;;;;99.85;45.45;;;0.50;99.90;;;;;;19870513;29;20047;-51
2022/04/06 02:01:51;;;;;;;109.25;47.45;;;0.40;99.90;;;;;;19854167;29;20096;-55
2022/04/06 02:11:55;;;;;;;132.55;53.15;;;0.50;99.90;;;;;;19827113;29;20047;-55
2022/04/06 02:21:57;;;;;;;112.90;49.53;;;0.60;99.90;;;;;;19819550;29;20131;-50
2022/04/06 02:32:00;;;;;;;96.38;44.13;;;0.70;99.90;;;;;;19876699;29;20043;-52
2022/04/06 02:42:03;;;;;;;111.13;49.38;;;0.60;99.90;;;;;;19865569;29;20381;-49
2022/04/06 02:52:07;;;;;;;106.32;48.25;;;0.40;99.90;;;;;;19821174;29;20522;-53
2022/04/06 03:02:10;;;;;;;119.70;52.70;;;0.40;99.90;;;;;;19857295;29;20593;-56
2022/04/06 03:12:12;;;;;;;102.97;45.45;;;0.30;99.90;;;;;;19852909;29;20043;-47
2022/04/06 03:22:17;;;;;;;98.43;44.42;;;0.40;99.90;;;;;;19829169;29;20046;-53
2022/04/06 03:32:20;;;;;;;109.15;48.85;;;0.60;99.90;;;;;;19843002;29;20096;-56
2022/04/06 03:42:23;;;;;;;113.45;49.28;;;0.50;99.90;;;;;;19859405;29;20047;-49
2022/04/06 03:52:29;;;;;;;120.70;51.90;;;0.30;99.90;;;;;;19854827;29;20588;-50
2022/04/06 04:02:32;;;;;;;125.55;50.90;;;0.20;99.90;;;;;;19836097;29;20613;-47
2022/04/06 04:12:36;;;;;;;124.30;52.22;;;0.20;99.90;;;;;;19814707;29;20491;-49
2022/04/06 04:22:38;;;;;;;135.63;53.78;;;0.20;99.90;;;;;;19804624;29;20047;-57
2022/04/06 04:32:40;;;;;;;154.13;57.78;;;0.10;99.90;;;;;;19797246;29;20416;-47
2022/04/06 04:42:43;;;;;;;118.20;49.55;;;0.10;99.90;;;;;;19796901;29;20035;-57
2022/04/06 04:52:46;;;;;;;138.02;56.30;;;0.00;99.90;;;;;;19832384;29;20139;-48
2022/04/06 05:02:49;;;;;;;126.18;51.30;;;0.00;99.90;;;;;;19870197;29;20108;-57
2022/04/06 05:12:52;;;;;;;134.00;52.97;;;0.00;99.90;;;;;;19817335;29;20047;-48
2022/04/06 05:22:55;;;;;;;123.68;52.63;;;0.10;99.90;;;;;;19820291;29;20487;-57
2022/04/06 05:32:57;;;;;;;131.50;55.00;;;0.20;99.90;;;;;;19865569;29;20043;-50
2022/04/06 05:43:00;;;;;;;132.38;55.97;;;0.40;99.90;;;;;;19843201;29;20043;-52
2022/04/06 05:53:02;;;;;;;127.05;54.28;;;0.60;99.90;;;;;;19865856;29;20063;-49
2022/04/06 06:03:05;;;;;;;122.57;54.80;;;0.80;99.90;;;;;;19857728;29;20448;-57
2022/04/06 06:13:08;;;;;;;117.00;53.58;;;1.00;99.90;;;;;;19860842;29;20115;-49
2022/04/06 06:23:10;;;;;;;107.43;50.83;;;1.30;99.90;;;;;;19826887;29;20127;-51
2022/04/06 06:33:13;;;;;;;91.70;44.35;;;1.60;99.90;;;;;;19851013;29;20099;-54
2022/04/06 06:43:16;;;;;;;79.53;43.53;;;2.10;99.90;;;;;;19835190;29;20047;-57
2022/04/06 06:53:18;;;;;;;67.65;38.33;;;2.90;99.90;;;;;;19851522;29;20414;-57
2022/04/06 07:03:21;;;;;;;64.32;35.50;;;4.00;99.90;;;;;;19872838;29;20096;-54
2022/04/06 07:13:29;;;;;;;63.22;35.80;;;5.00;99.90;;;;;;19826500;29;20426;-55
2022/04/06 07:23:53;;;;;;;57.50;32.42;;;6.00;99.90;;;;;;19801057;29;20071;-55
2022/04/06 07:33:55;;;;;;;55.35;32.80;;;6.60;99.90;;;;;;19817927;29;20088;-56
2022/04/06 07:43:58;;;;;;;50.88;31.80;;;7.50;99.90;;;;;;19851102;29;20096;-55
2022/04/06 07:54:01;;;;;;;52.92;30.92;;;7.90;99.90;;;;;;19837283;29;20465;-54
2022/04/06 08:04:04;;;;;;;50.63;29.17;;;8.40;99.90;;;;;;19841026;29;20107;-53
2022/04/06 08:14:06;;;;;;;45.55;28.55;;;8.70;99.90;;;;;;19827209;29;20051;-55
2022/04/06 08:24:09;;;;;;;47.47;29.17;;;9.00;99.90;;;;;;19808297;29;20072;-52
2022/04/06 08:34:19;;;;;;;38.67;24.73;;;9.00;99.90;;;;;;19858673;29;20097;-54
2022/04/06 08:44:22;;;;;;;42.83;24.45;;;9.30;99.90;;;;;;19847772;29;20108;-54
2022/04/06 08:54:27;;;;;;;42.80;25.02;;;9.40;99.90;;;;;;19848426;29;20476;-58
2022/04/06 09:04:35;;;;;;;39.28;26.05;;;9.50;99.90;;;;;;19888474;29;20556;-55
2022/04/06 09:14:37;;;;;;;38.00;22.92;;;10.00;99.90;;;;;;19879580;29;20035;-56
2022/04/06 09:24:39;;;;;;;34.92;22.17;;;10.30;99.90;;;;;;19809058;29;20491;-56
2022/04/06 09:34:46;;;;;;;34.28;21.80;;;10.60;99.90;;;;;;19807994;29;20088;-55
2022/04/06 09:55:13;;;;;;;30.75;19.88;;;10.90;99.90;;;;;;19881890;29;20042;-53
2022/04/06 10:05:19;;;;;;;30.83;20.55;;;11.00;99.90;;;;;;19881486;29;20047;-54
2022/04/06 10:15:21;;;;;;;35.55;21.27;;;10.60;99.90;;;;;;19805724;29;20071;-53
2022/04/06 10:25:30;;;;;;;37.67;23.27;;;9.40;99.90;;;;;;19805104;29;20120;-59
2022/04/06 10:35:37;;;;;;;43.58;25.73;;;8.60;99.90;;;;;;19832535;29;20079;-51
2022/04/06 10:45:40;;;;;;;45.20;27.08;;;7.90;99.90;;;;;;19866759;29;20070;-59
2022/04/06 10:55:55;;;;;;;44.55;26.77;;;7.50;99.90;;;;;;19846726;29;20055;-49
2022/04/06 11:05:58;;;;;;;43.60;25.35;;;7.20;99.90;;;;;;19826273;29;20522;-53
2022/04/06 11:16:00;;;;;;;41.00;24.50;;;7.20;99.90;;;;;;19847032;29;20565;-53
2022/04/06 11:26:03;;;;;;;38.95;24.00;;;7.90;99.90;;;;;;19849635;29;20046;-54
2022/04/06 11:36:17;;;;;;;37.67;23.80;;;8.20;99.90;;;;;;19868540;29;20043;-51
2022/04/06 11:46:20;;;;;;;39.40;23.52;;;8.50;99.90;;;;;;19874377;29;20047;-54
2022/04/06 11:56:23;;;;;;;37.85;22.95;;;8.60;99.90;;;;;;19789137;29;20063;-55
2022/04/06 12:06:36;;;;;;;35.10;22.25;;;9.30;99.90;;;;;;19843766;29;20491;-55
2022/04/06 12:16:41;;;;;;;30.00;19.92;;;10.00;99.90;;;;;;19843955;29;20047;-56
2022/04/06 12:26:51;;;;;;;31.45;20.63;;;10.80;99.90;;;;;;19798246;29;20043;-58
2022/04/06 12:36:54;;;;;;;32.20;20.27;;;11.10;99.90;;;;;;19832763;29;20050;-54
2022/04/06 12:46:57;;;;;;;32.53;20.73;;;11.40;99.90;;;;;;19872362;29;20051;-59
2022/04/06 12:57:07;;;;;;;32.80;20.55;;;11.70;99.90;;;;;;19841622;29;20051;-55
2022/04/06 13:07:11;;;;;;;34.40;21.73;;;11.00;99.90;;;;;;19834757;29;20474;-53
2022/04/06 13:17:14;;;;;;;34.83;22.73;;;9.90;99.90;;;;;;19799919;29;20043;-54
2022/04/06 13:27:17;;;;;;;36.20;22.70;;;10.00;99.90;;;;;;19809408;29;20582;-52
2022/04/06 13:37:19;;;;;;;35.42;22.73;;;10.10;99.90;;;;;;19876654;29;20419;-59
2022/04/06 13:47:23;;;;;;;38.03;23.42;;;9.50;99.90;;;;;;19848849;29;20119;-58
2022/04/06 13:57:28;;;;;;;36.38;22.38;;;9.40;99.90;;;;;;19847874;29;20062;-58
2022/04/06 14:07:33;;;;;;;37.17;23.42;;;9.00;99.90;;;;;;19822373;29;20135;-51
2022/04/06 14:17:36;;;;;;;36.20;21.80;;;8.80;99.90;;;;;;19841928;29;20092;-54
2022/04/06 14:27:39;;;;;;;35.97;22.40;;;9.50;99.90;;;;;;19833646;29;20099;-54
2022/04/06 14:37:42;;;;;;;35.47;22.55;;;9.50;99.90;;;;;;19811544;29;20510;-58
2022/04/06 14:47:46;;;;;;;38.20;21.85;;;9.70;99.90;;;;;;19860791;29;20075;-57
2022/04/06 14:57:48;;;;;;;38.05;22.42;;;10.20;99.90;;;;;;19850589;29;20111;-59
2022/04/06 15:07:52;;;;;;;41.38;25.02;;;10.00;99.90;;;;;;19831645;29;20504;-53
2022/04/06 15:17:59;;;;;;;43.28;27.27;;;9.40;99.90;;;;;;19845567;29;20407;-53
2022/04/06 15:28:02;;;;;;;43.25;26.88;;;8.80;99.90;;;;;;19804687;29;20487;-53
2022/04/06 15:38:05;;;;;;;46.90;28.67;;;8.30;99.90;;;;;;19800793;29;20043;-59
2022/04/06 15:48:07;;;;;;;49.63;31.75;;;8.20;99.90;;;;;;19818643;29;20075;-51
2022/04/06 15:58:14;;;;;;;48.65;29.67;;;7.80;99.90;;;;;;19846116;29;20148;-51
2022/04/06 16:08:19;;;;;;;54.13;32.33;;;7.60;99.90;;;;;;19839403;29;20126;-53
2022/04/06 16:18:22;;;;;;;58.25;32.92;;;7.40;99.90;;;;;;19831387;29;20079;-58
2022/04/06 16:28:24;;;;;;;59.20;35.40;;;7.10;99.90;;;;;;19839213;29;20043;-51
2022/04/06 16:38:27;;;;;;;62.28;37.30;;;6.80;99.90;;;;;;19839583;29;20075;-53
2022/04/06 16:48:30;;;;;;;63.15;37.15;;;6.50;99.90;;;;;;19855648;29;20127;-49
2022/04/06 16:58:33;;;;;;;63.72;37.33;;;6.20;99.90;;;;;;19857122;29;20087;-50
2022/04/06 17:08:37;;;;;;;64.07;37.95;;;6.00;99.90;;;;;;19810887;29;20047;-52
2022/04/06 17:18:39;;;;;;;74.03;40.42;;;5.90;99.90;;;;;;19837013;29;20415;-50
2022/04/06 17:28:42;;;;;;;78.20;42.50;;;5.80;99.90;;;;;;19850670;29;20048;-50
2022/04/06 17:38:45;;;;;;;66.40;39.00;;;5.70;99.90;;;;;;19870245;29;20039;-50
2022/04/06 17:48:48;;;;;;;72.30;40.88;;;5.60;99.90;;;;;;19859801;29;20067;-52
2022/04/06 17:58:51;;;;;;;72.53;39.67;;;5.50;99.90;;;;;;19828956;29;20107;-51
2022/04/06 18:08:58;;;;;;;74.50;42.47;;;5.50;99.90;;;;;;19862253;29;20111;-58
2022/04/06 18:19:01;;;;;;;71.00;40.70;;;5.40;99.90;;;;;;19832624;29;20044;-56
2022/04/06 18:29:05;;;;;;;68.03;40.30;;;5.40;99.90;;;;;;19840449;29;20507;-51
2022/04/06 18:39:08;;;;;;;73.30;40.10;;;5.30;99.90;;;;;;19859734;29;20104;-58
2022/04/06 18:49:11;;;;;;;68.25;39.47;;;5.30;99.90;;;;;;19856774;29;20104;-54
2022/04/06 18:59:13;;;;;;;69.47;39.15;;;5.20;99.90;;;;;;19824908;29;20130;-51
2022/04/06 19:09:16;;;;;;;71.00;40.83;;;5.20;99.90;;;;;;19818320;29;20372;-53
2022/04/06 19:19:19;;;;;;;68.20;38.13;;;5.10;99.90;;;;;;19866638;29;20564;-48
2022/04/06 19:29:22;;;;;;;67.63;38.72;;;5.10;99.90;;;;;;19942163;29;20069;-52
2022/04/06 19:39:24;;;;;;;66.78;39.15;;;5.10;99.90;;;;;;19896950;29;20078;-52
2022/04/06 19:49:28;;;;;;;70.00;38.80;;;5.10;99.90;;;;;;19882156;29;20082;-50
2022/04/06 19:59:31;;;;;;;64.47;36.88;;;5.00;99.90;;;;;;19888488;29;20074;-53
2022/04/06 20:09:35;;;;;;;69.05;39.35;;;5.00;99.90;;;;;;19882756;29;20078;-58
2022/04/06 20:19:38;;;;;;;68.72;39.58;;;4.90;99.90;;;;;;19850579;29;20562;-49
2022/04/06 20:29:40;;;;;;;87.55;47.00;;;4.80;99.90;;;;;;19828701;29;20078;-53
2022/04/06 20:39:46;;;;;;;76.65;42.20;;;4.80;99.90;;;;;;19843867;29;20579;-56
2022/04/06 20:49:50;;;;;;;92.93;48.08;;;4.80;99.90;;;;;;19817935;29;20043;-49
2022/04/06 20:59:52;;;;;;;92.35;48.50;;;4.70;99.90;;;;;;19820545;29;20177;-52
2022/04/06 21:09:55;;;;;;;96.50;50.38;;;4.80;99.90;;;;;;19822038;29;20180;-58
2022/04/06 21:19:58;;;;;;;94.28;48.58;;;4.80;99.90;;;;;;19836993;29;20503;-48
2022/04/06 21:30:01;;;;;;;80.28;42.50;;;4.70;99.90;;;;;;19809364;29;20495;-52
2022/04/06 21:40:04;;;;;;;78.22;42.63;;;4.80;99.90;;;;;;19809519;29;20076;-51
2022/04/06 21:50:07;;;;;;;88.65;47.10;;;4.90;99.90;;;;;;19861864;29;20078;-50
2022/04/06 22:00:12;;;;;;;82.65;44.78;;;4.90;99.90;;;;;;19844569;29;20116;-49
2022/04/06 22:10:23;;;;;;;84.28;45.03;;;4.90;99.90;;;;;;19815697;29;20046;-58
2022/04/06 22:20:26;;;;;;;86.88;44.03;;;4.90;99.90;;;;;;19828544;29;20043;-53
2022/04/06 22:30:28;;;;;;;79.25;41.33;;;4.90;99.90;;;;;;19875542;29;20559;-50
2022/04/06 22:40:32;;;;;;;73.50;39.40;;;4.90;99.90;;;;;;19879042;29;20039;-53
2022/04/06 22:50:34;;;;;;;71.57;39.30;;;4.80;99.90;;;;;;19846655;29;20039;-49
2022/04/06 23:00:37;;;;;;;71.05;38.80;;;4.80;99.90;;;;;;19803371;29;20664;-53
2022/04/06 23:10:40;;;;;;;73.22;38.65;;;4.80;99.90;;;;;;19840388;29;20046;-52
2022/04/06 23:20:42;;;;;;;68.00;40.28;;;4.80;99.90;;;;;;19840256;29;20142;-55
2022/04/06 23:30:45;;;;;;;71.57;39.28;;;4.70;99.90;;;;;;19847342;29;20085;-52
2022/04/06 23:40:47;;;;;;;74.00;40.13;;;4.70;99.90;;;;;;19864765;29;20119;-58
2022/04/06 23:50:51;;;;;;;73.35;39.70;;;4.60;99.90;;;;;;19863145;29;20479;-54
